createdAt,value
2022-12-22T00:00:31.623Z,24.91
2022-12-22T00:03:20.099Z,24.84
2022-12-22T00:05:48.696Z,24.82
2022-12-22T00:08:17.004Z,24.62
2022-12-22T00:10:45.275Z,24.75
2022-12-22T00:13:15.634Z,24.72
2022-12-22T00:15:43.997Z,24.72
2022-12-22T00:18:17.503Z,24.63
2022-12-22T00:20:45.908Z,24.66
2022-12-22T00:23:14.299Z,24.67
2022-12-22T00:25:42.871Z,24.74
2022-12-22T00:28:14.998Z,24.80
2022-12-22T00:30:45.598Z,24.71
2022-12-22T00:33:17.243Z,24.81
2022-12-22T00:35:47.002Z,24.79
2022-12-22T00:38:18.164Z,24.77
2022-12-22T00:40:46.764Z,24.68
2022-12-22T00:43:16.380Z,24.68
2022-12-22T00:45:46.289Z,24.69
2022-12-22T00:48:25.294Z,24.77
2022-12-22T00:50:53.587Z,24.73
2022-12-22T00:53:22.677Z,24.63
2022-12-22T00:55:51.178Z,24.48
2022-12-22T00:58:20.575Z,24.63
2022-12-22T01:00:48.858Z,24.72
2022-12-22T01:03:17.626Z,24.88
2022-12-22T01:05:46.684Z,24.84
2022-12-22T01:08:15.291Z,24.79
2022-12-22T01:10:43.694Z,24.75
2022-12-22T01:13:17.252Z,24.79
2022-12-22T01:15:48.524Z,24.85
2022-12-22T01:18:18.846Z,24.85
2022-12-22T01:20:47.870Z,24.82
2022-12-22T01:23:16.293Z,24.92
2022-12-22T01:25:44.811Z,24.96
2022-12-22T01:28:20.034Z,24.92
2022-12-22T01:30:48.711Z,24.97
2022-12-22T01:33:17.011Z,24.97
2022-12-22T01:35:45.395Z,24.86
2022-12-22T01:38:14.136Z,24.90
2022-12-22T01:40:42.503Z,24.86
2022-12-22T01:43:27.937Z,24.79
2022-12-22T01:45:56.320Z,24.72
2022-12-22T01:48:29.645Z,24.66
2022-12-22T01:50:59.978Z,24.74
2022-12-22T01:53:30.653Z,24.77
2022-12-22T01:56:00.718Z,24.78
2022-12-22T01:58:33.177Z,24.81
2022-12-22T02:01:01.368Z,24.77
2022-12-22T02:03:29.680Z,24.70
2022-12-22T02:06:07.589Z,24.70
2022-12-22T02:08:43.884Z,24.70
2022-12-22T02:11:48.811Z,24.61
2022-12-22T02:14:32.321Z,24.61
2022-12-22T02:17:32.271Z,24.53
2022-12-22T02:20:23.407Z,24.64
2022-12-22T02:23:10.432Z,24.61
2022-12-22T02:25:48.004Z,24.61
2022-12-22T02:28:18.528Z,24.59
2022-12-22T02:30:49.524Z,24.49
2022-12-22T02:33:20.773Z,24.48
2022-12-22T02:36:13.183Z,24.49
2022-12-22T02:38:50.396Z,24.54
2022-12-22T02:41:31.172Z,24.54
2022-12-22T02:44:17.830Z,24.48
2022-12-22T02:47:16.729Z,24.49
2022-12-22T02:49:57.395Z,24.52
2022-12-22T02:52:31.489Z,24.45
2022-12-22T02:55:00.744Z,24.39
2022-12-22T02:57:29.859Z,24.40
2022-12-22T02:59:58.406Z,24.43
2022-12-22T03:02:28.340Z,24.44
2022-12-22T03:04:56.701Z,24.40
2022-12-22T03:07:25.132Z,24.44
2022-12-22T03:09:54.034Z,24.48
2022-12-22T03:12:22.205Z,24.40
2022-12-22T03:14:53.838Z,24.41
2022-12-22T03:17:22.043Z,24.32
2022-12-22T03:19:50.642Z,24.33
2022-12-22T03:22:18.919Z,24.28
2022-12-22T03:24:47.096Z,24.19
2022-12-22T03:27:16.910Z,24.40
2022-12-22T03:29:45.569Z,24.32
2022-12-22T03:32:14.025Z,24.28
2022-12-22T03:34:42.394Z,24.43
2022-12-22T03:37:10.846Z,24.38
2022-12-22T03:39:42.073Z,24.40
2022-12-22T03:42:13.775Z,24.39
2022-12-22T03:44:41.902Z,24.40
2022-12-22T03:47:10.034Z,24.38
2022-12-22T03:49:40.390Z,24.41
2022-12-22T03:52:08.601Z,24.38
2022-12-22T03:54:36.783Z,24.40
2022-12-22T03:57:05.026Z,24.40
2022-12-22T03:59:33.412Z,24.35
2022-12-22T04:02:01.929Z,24.32
2022-12-22T04:04:30.424Z,24.23
2022-12-22T04:06:59.228Z,24.27
2022-12-22T04:09:27.524Z,24.30
2022-12-22T04:11:56.174Z,24.29
2022-12-22T04:14:29.807Z,24.27
2022-12-22T04:17:02.853Z,24.24
2022-12-22T04:19:31.564Z,24.28
2022-12-22T04:22:00.168Z,24.17
2022-12-22T04:24:30.737Z,24.04
2022-12-22T04:26:59.206Z,24.07
2022-12-22T04:29:27.297Z,24.13
2022-12-22T04:31:55.674Z,24.11
2022-12-22T04:34:24.883Z,24.13
2022-12-22T04:36:53.385Z,24.05
2022-12-22T04:39:21.749Z,24.08
2022-12-22T04:41:49.923Z,24.00
2022-12-22T04:44:18.910Z,23.89
2022-12-22T04:46:47.300Z,23.93
2022-12-22T04:49:15.616Z,23.97
2022-12-22T04:51:44.289Z,23.99
2022-12-22T04:54:12.520Z,23.91
2022-12-22T04:56:40.784Z,23.88
2022-12-22T04:59:08.978Z,23.84
2022-12-22T05:01:37.201Z,23.84
2022-12-22T05:04:05.609Z,23.74
2022-12-22T05:06:34.721Z,23.78
2022-12-22T05:09:03.173Z,23.76
2022-12-22T05:11:31.498Z,23.62
2022-12-22T05:14:05.338Z,23.65
2022-12-22T05:16:36.585Z,23.67
2022-12-22T05:19:05.401Z,23.78
2022-12-22T05:21:34.962Z,23.76
2022-12-22T05:24:03.507Z,23.79
2022-12-22T05:26:31.577Z,23.80
2022-12-22T05:28:59.737Z,23.84
2022-12-22T05:31:28.104Z,23.74
2022-12-22T05:33:56.688Z,23.77
2022-12-22T05:36:24.933Z,23.79
2022-12-22T05:38:53.348Z,23.78
2022-12-22T05:41:21.656Z,23.74
2022-12-22T05:43:50.858Z,23.75
2022-12-22T05:46:19.305Z,23.81
2022-12-22T05:48:48.445Z,23.84
2022-12-22T05:51:16.793Z,23.78
2022-12-22T05:53:45.473Z,23.73
2022-12-22T05:56:13.588Z,23.77
2022-12-22T05:58:41.704Z,23.68
2022-12-22T06:01:10.648Z,23.76
2022-12-22T06:03:39.089Z,23.74
2022-12-22T06:06:07.926Z,23.80
2022-12-22T06:08:36.465Z,23.88
2022-12-22T06:11:04.712Z,23.85
2022-12-22T06:13:32.923Z,23.88
2022-12-22T06:16:01.150Z,23.88
2022-12-22T06:18:29.336Z,23.92
2022-12-22T06:20:57.476Z,23.76
2022-12-22T06:23:27.010Z,23.84
2022-12-22T06:26:00.439Z,23.93
2022-12-22T06:28:29.400Z,23.85
2022-12-22T06:30:57.850Z,23.86
2022-12-22T06:33:26.097Z,23.77
2022-12-22T06:35:58.946Z,23.82
2022-12-22T06:38:28.704Z,23.74
2022-12-22T06:40:57.244Z,23.81
2022-12-22T06:43:26.308Z,23.74
2022-12-22T06:45:54.652Z,23.76
2022-12-22T06:48:24.532Z,23.77
2022-12-22T06:50:58.073Z,23.76
2022-12-22T06:53:27.892Z,23.74
2022-12-22T06:55:56.062Z,23.51
2022-12-22T06:58:24.269Z,23.52
2022-12-22T07:00:56.814Z,23.56
2022-12-22T07:03:25.269Z,23.52
2022-12-22T07:05:53.996Z,23.51
2022-12-22T07:08:24.175Z,23.50
2022-12-22T07:10:52.334Z,23.61
2022-12-22T07:13:20.534Z,23.58
2022-12-22T07:15:59.543Z,23.59
2022-12-22T07:18:34.803Z,23.58
2022-12-22T07:21:06.306Z,23.71
2022-12-22T07:23:36.824Z,23.62
2022-12-22T07:26:08.038Z,23.66
2022-12-22T07:28:38.333Z,23.71
2022-12-22T07:31:07.565Z,23.85
2022-12-22T07:33:37.314Z,23.84
2022-12-22T07:36:08.755Z,23.94
2022-12-22T07:38:40.347Z,23.77
2022-12-22T07:41:10.291Z,23.83
2022-12-22T07:43:38.831Z,23.85
2022-12-22T07:46:07.345Z,23.97
2022-12-22T07:48:36.105Z,24.13
2022-12-22T07:51:06.485Z,24.59
2022-12-22T07:53:35.150Z,25.13
2022-12-22T07:56:05.204Z,25.72
2022-12-22T07:58:33.806Z,26.40
2022-12-22T08:01:03.137Z,27.24
2022-12-22T08:03:31.266Z,28.11
2022-12-22T08:05:59.583Z,29.10
2022-12-22T08:08:27.642Z,29.65
2022-12-22T08:10:55.844Z,30.11
2022-12-22T08:13:24.103Z,30.46
2022-12-22T08:15:52.566Z,30.49
2022-12-22T08:18:21.217Z,30.98
2022-12-22T08:20:52.707Z,31.34
2022-12-22T08:23:20.797Z,31.55
2022-12-22T08:25:55.701Z,31.73
2022-12-22T08:28:24.271Z,32.21
2022-12-22T08:30:52.540Z,32.73
2022-12-22T08:33:21.767Z,33.29
2022-12-22T08:35:49.926Z,33.94
2022-12-22T08:38:18.275Z,34.40
2022-12-22T08:40:47.900Z,35.05
2022-12-22T08:43:17.375Z,35.84
2022-12-22T08:45:45.711Z,36.26
2022-12-22T08:48:13.960Z,36.76
2022-12-22T08:50:42.296Z,37.11
2022-12-22T08:53:29.741Z,37.46
2022-12-22T08:55:58.849Z,37.64
2022-12-22T08:58:27.044Z,38.38
2022-12-22T09:00:55.266Z,38.57
2022-12-22T09:03:26.775Z,38.52
2022-12-22T09:06:03.804Z,38.56
2022-12-22T09:08:32.197Z,38.95
2022-12-22T09:11:04.691Z,39.70
2022-12-22T09:13:33.032Z,40.24
2022-12-22T09:16:09.721Z,40.20
2022-12-22T09:18:38.231Z,40.68
2022-12-22T09:21:06.340Z,41.43
2022-12-22T09:23:34.571Z,41.86
2022-12-22T09:26:11.318Z,42.07
2022-12-22T09:28:42.623Z,42.58
2022-12-22T09:31:16.193Z,43.07
2022-12-22T09:33:44.956Z,43.14
2022-12-22T09:36:15.980Z,43.20
2022-12-22T09:38:44.604Z,43.11
2022-12-22T09:41:25.470Z,43.03
2022-12-22T09:43:56.386Z,43.05
2022-12-22T09:46:28.923Z,42.75
2022-12-22T09:48:58.270Z,42.61
2022-12-22T09:51:27.682Z,42.17
2022-12-22T09:54:00.865Z,42.01
2022-12-22T09:56:29.674Z,41.90
2022-12-22T09:58:57.887Z,41.69
2022-12-22T10:01:54.037Z,41.71
2022-12-22T10:04:28.414Z,41.57
2022-12-22T10:07:10.012Z,41.82
2022-12-22T10:09:53.429Z,41.98
2022-12-22T10:12:24.509Z,42.30
2022-12-22T10:14:54.595Z,42.77
2022-12-22T10:17:28.016Z,43.39
2022-12-22T10:20:26.597Z,43.82
2022-12-22T10:22:58.845Z,44.17
2022-12-22T10:26:25.872Z,44.71
2022-12-22T10:28:39.152Z,45.13
2022-12-22T10:31:15.140Z,45.51
2022-12-22T10:33:47.471Z,45.82
2022-12-22T10:36:22.374Z,45.92
2022-12-22T10:39:09.379Z,46.00
2022-12-22T10:41:44.008Z,46.42
2022-12-22T10:44:26.335Z,46.86
2022-12-22T10:46:57.897Z,47.07
2022-12-22T10:52:29.440Z,47.29
2022-12-22T10:55:20.056Z,47.25
2022-12-22T10:57:49.497Z,47.44
2022-12-22T11:00:28.414Z,47.57
2022-12-22T11:03:02.006Z,47.08
2022-12-22T11:05:32.369Z,46.76
2022-12-22T11:08:12.878Z,46.55
2022-12-22T11:11:07.462Z,46.09
2022-12-22T11:14:04.301Z,45.28
2022-12-22T11:16:32.778Z,44.79
2022-12-22T11:19:02.370Z,44.25
2022-12-22T11:21:56.341Z,44.05
2022-12-22T11:24:58.711Z,44.35
2022-12-22T11:27:45.576Z,44.39
2022-12-22T11:30:19.889Z,44.46
2022-12-22T11:33:32.328Z,44.61
2022-12-22T11:36:09.813Z,44.23
2022-12-22T11:39:17.554Z,44.53
2022-12-22T11:42:00.835Z,44.81
2022-12-22T11:45:01.894Z,44.90
2022-12-22T11:47:47.374Z,45.12
2022-12-22T11:50:59.305Z,45.23
2022-12-22T11:53:49.472Z,45.12
2022-12-22T11:56:25.647Z,44.60
2022-12-22T11:59:01.031Z,44.24
2022-12-22T12:01:44.242Z,43.94
2022-12-22T12:04:50.419Z,43.45
2022-12-22T12:07:31.962Z,42.94
2022-12-22T12:10:25.153Z,42.42
2022-12-22T12:13:18.074Z,41.89
2022-12-22T12:16:01.986Z,41.32
2022-12-22T12:18:43.495Z,40.84
2022-12-22T12:21:29.929Z,40.26
2022-12-22T12:24:17.282Z,39.94
2022-12-22T12:27:22.555Z,39.57
2022-12-22T12:30:36.858Z,39.19
2022-12-22T12:32:58.689Z,38.77
2022-12-22T12:35:45.894Z,38.47
2022-12-22T12:39:06.371Z,38.21
2022-12-22T12:41:43.341Z,37.88
2022-12-22T12:44:19.432Z,37.75
2022-12-22T12:46:56.131Z,37.74
2022-12-22T12:49:36.856Z,37.53
2022-12-22T12:52:11.757Z,37.23
2022-12-22T12:54:46.140Z,37.22
2022-12-22T12:57:46.202Z,36.93
2022-12-22T13:00:33.490Z,36.83
2022-12-22T13:04:01.281Z,36.84
2022-12-22T13:06:50.563Z,36.87
2022-12-22T13:12:40.917Z,36.82
2022-12-22T13:15:32.095Z,36.82
2022-12-22T13:18:03.042Z,36.87
2022-12-22T13:21:34.439Z,36.95
2022-12-22T13:24:23.008Z,37.03
2022-12-22T13:26:49.473Z,37.09
2022-12-22T13:29:28.526Z,37.07
2022-12-22T13:32:05.155Z,37.09
2022-12-22T13:35:20.105Z,37.12
2022-12-22T13:37:41.862Z,37.17
2022-12-22T13:40:23.616Z,37.26
2022-12-22T13:42:53.562Z,37.20
2022-12-22T13:45:33.206Z,37.13
2022-12-22T13:48:06.553Z,36.83
2022-12-22T13:50:44.017Z,36.82
2022-12-22T13:53:42.310Z,36.68
2022-12-22T13:56:12.531Z,36.63
2022-12-22T13:58:43.548Z,36.60
2022-12-22T14:01:11.771Z,36.51
2022-12-22T14:04:00.014Z,36.49
2022-12-22T14:06:37.603Z,36.57
2022-12-22T14:09:19.172Z,36.58
2022-12-22T14:11:52.993Z,36.57
2022-12-22T14:14:29.089Z,36.58
2022-12-22T14:16:59.892Z,36.56
2022-12-22T14:19:33.968Z,36.49
2022-12-22T14:22:26.730Z,36.39
2022-12-22T14:25:01.112Z,36.35
2022-12-22T14:27:40.410Z,36.16
2022-12-22T14:30:21.340Z,35.80
2022-12-22T14:32:55.500Z,35.48
2022-12-22T14:35:28.711Z,35.28
2022-12-22T14:38:03.021Z,35.13
2022-12-22T14:40:34.378Z,35.00
2022-12-22T14:43:07.225Z,34.77
2022-12-22T14:45:35.438Z,34.82
2022-12-22T14:48:09.227Z,34.66
2022-12-22T14:50:37.626Z,34.60
2022-12-22T14:53:06.056Z,34.53
2022-12-22T14:55:42.226Z,34.61
2022-12-22T14:58:10.352Z,34.42
2022-12-22T15:00:44.413Z,34.32
2022-12-22T15:03:25.075Z,34.22
2022-12-22T15:05:53.547Z,34.10
2022-12-22T15:08:42.846Z,34.03
2022-12-22T15:11:20.436Z,33.86
2022-12-22T15:13:52.038Z,33.81
2022-12-22T15:16:24.866Z,33.77
2022-12-22T15:18:53.569Z,33.76
2022-12-22T15:21:22.051Z,33.75
2022-12-22T15:23:50.341Z,33.67
2022-12-22T15:26:18.551Z,33.58
2022-12-22T15:28:46.854Z,33.47
2022-12-22T15:31:17.593Z,33.32
2022-12-22T15:33:46.311Z,33.15
2022-12-22T15:36:15.090Z,32.95
2022-12-22T15:38:43.739Z,32.68
2022-12-22T15:41:11.953Z,32.70
2022-12-22T15:43:58.442Z,32.47
2022-12-22T15:46:27.278Z,32.33
2022-12-22T15:48:55.609Z,32.32
2022-12-22T15:51:30.149Z,31.95
2022-12-22T15:53:59.637Z,31.76
2022-12-22T15:56:31.513Z,31.61
2022-12-22T15:59:01.837Z,31.37
2022-12-22T16:01:30.259Z,31.21
2022-12-22T16:03:58.634Z,31.30
2022-12-22T16:06:27.191Z,31.25
2022-12-22T16:08:55.743Z,31.18
2022-12-22T16:11:23.995Z,31.12
2022-12-22T16:13:53.026Z,30.94
2022-12-22T16:16:21.593Z,30.85
2022-12-22T16:18:50.268Z,30.70
2022-12-22T16:21:21.689Z,30.63
2022-12-22T16:23:51.608Z,30.61
2022-12-22T16:26:21.538Z,30.51
2022-12-22T16:28:49.876Z,30.43
2022-12-22T16:31:23.570Z,30.34
2022-12-22T16:33:52.817Z,30.06
2022-12-22T16:36:22.231Z,30.01
2022-12-22T16:38:51.053Z,29.98
2022-12-22T16:41:23.958Z,29.89
2022-12-22T16:46:41.660Z,29.74
2022-12-22T16:49:10.362Z,29.61
2022-12-22T16:51:48.390Z,29.48
2022-12-22T16:54:17.233Z,29.47
2022-12-22T16:56:45.467Z,29.36
2022-12-22T16:59:14.199Z,29.26
2022-12-22T17:01:52.908Z,29.27
2022-12-22T17:04:32.479Z,29.25
2022-12-22T17:07:02.600Z,29.23
2022-12-22T17:09:43.841Z,29.17
2022-12-22T17:12:26.607Z,29.06
2022-12-22T17:14:56.618Z,29.03
2022-12-22T17:17:31.903Z,29.03
2022-12-22T17:20:02.286Z,29.05
2022-12-22T17:22:32.791Z,29.11
2022-12-22T17:25:05.485Z,29.07
2022-12-22T17:27:35.340Z,29.03
2022-12-22T17:30:04.688Z,29.04
2022-12-22T17:32:32.922Z,29.03
2022-12-22T17:35:01.220Z,29.03
2022-12-22T17:37:29.680Z,28.96
2022-12-22T17:40:01.858Z,28.86
2022-12-22T17:42:32.240Z,28.87
2022-12-22T17:45:00.705Z,28.83
2022-12-22T17:47:34.653Z,28.82
2022-12-22T17:50:11.223Z,28.82
2022-12-22T17:52:40.202Z,28.77
2022-12-22T17:55:49.782Z,28.72
2022-12-22T17:58:14.756Z,28.71
2022-12-22T18:00:43.399Z,28.62
2022-12-22T18:03:15.941Z,28.56
2022-12-22T18:05:47.041Z,28.49
2022-12-22T18:08:20.693Z,28.38
2022-12-22T18:10:49.984Z,28.29
2022-12-22T18:13:22.695Z,28.23
2022-12-22T18:15:51.053Z,28.22
2022-12-22T18:18:19.480Z,28.12
2022-12-22T18:21:05.747Z,28.00
2022-12-22T18:23:37.029Z,27.91
2022-12-22T18:26:07.181Z,27.79
2022-12-22T18:28:36.064Z,27.59
2022-12-22T18:31:04.742Z,27.54
2022-12-22T18:33:33.602Z,27.47
2022-12-22T18:36:02.539Z,27.28
2022-12-22T18:38:34.056Z,27.10
2022-12-22T18:41:04.157Z,27.00
2022-12-22T18:43:32.510Z,26.95
2022-12-22T18:46:01.063Z,26.99
2022-12-22T18:48:29.452Z,27.11
2022-12-22T18:50:57.755Z,27.04
2022-12-22T18:53:31.955Z,27.03
2022-12-22T18:56:00.469Z,27.12
2022-12-22T18:58:28.678Z,27.16
2022-12-22T19:00:57.296Z,27.18
2022-12-22T19:03:28.136Z,27.07
2022-12-22T19:05:57.857Z,27.14
2022-12-22T19:08:27.769Z,27.03
2022-12-22T19:11:04.019Z,27.06
2022-12-22T19:13:43.349Z,27.07
2022-12-22T19:16:18.384Z,27.14
2022-12-22T19:18:46.591Z,27.09
2022-12-22T19:21:16.974Z,27.04
2022-12-22T19:23:45.640Z,27.08
2022-12-22T19:26:23.370Z,27.14
2022-12-22T19:28:54.766Z,27.11
2022-12-22T19:31:29.470Z,27.12
2022-12-22T19:34:04.494Z,27.12
2022-12-22T19:36:33.051Z,27.11
2022-12-22T19:39:05.149Z,27.06
2022-12-22T19:41:43.548Z,27.00
2022-12-22T19:44:16.245Z,26.99
2022-12-22T19:46:45.285Z,26.87
2022-12-22T19:49:18.842Z,26.74
2022-12-22T19:51:47.565Z,26.60
2022-12-22T19:54:16.524Z,26.68
2022-12-22T19:56:48.909Z,26.62
2022-12-22T19:59:45.868Z,26.48
2022-12-22T20:02:32.914Z,26.47
2022-12-22T20:05:01.154Z,26.43
2022-12-22T20:07:30.773Z,26.32
2022-12-22T20:09:59.154Z,26.35
2022-12-22T20:12:36.588Z,26.30
2022-12-22T20:15:29.411Z,26.30
2022-12-22T20:17:58.419Z,26.35
2022-12-22T20:20:26.579Z,26.33
2022-12-22T20:22:57.649Z,26.45
2022-12-22T20:25:28.405Z,26.34
2022-12-22T20:27:57.068Z,26.43
2022-12-22T20:30:28.589Z,26.36
2022-12-22T20:32:57.454Z,26.43
2022-12-22T20:35:25.835Z,26.38
2022-12-22T20:37:54.457Z,26.39
2022-12-22T20:40:29.547Z,26.43
2022-12-22T20:42:58.786Z,26.38
2022-12-22T20:45:29.871Z,26.39
2022-12-22T20:48:01.267Z,26.32
2022-12-22T20:50:31.000Z,26.33
2022-12-22T20:52:59.252Z,26.40
2022-12-22T20:55:29.057Z,26.46
2022-12-22T20:57:58.251Z,26.38
2022-12-22T21:00:28.617Z,26.43
2022-12-22T21:02:56.928Z,26.37
2022-12-22T21:05:25.696Z,26.45
2022-12-22T21:07:54.158Z,26.33
2022-12-22T21:10:25.015Z,26.26
2022-12-22T21:12:53.437Z,26.32
2022-12-22T21:15:26.926Z,26.37
2022-12-22T21:17:58.510Z,26.44
2022-12-22T21:20:30.349Z,26.53
2022-12-22T21:22:58.584Z,26.46
2022-12-22T21:25:26.981Z,26.50
2022-12-22T21:27:56.411Z,26.51
2022-12-22T21:30:27.178Z,26.59
2022-12-22T21:32:56.327Z,26.63
2022-12-22T21:35:28.996Z,26.58
2022-12-22T21:37:59.317Z,26.49
2022-12-22T21:40:29.956Z,26.51
2022-12-22T21:42:59.012Z,26.51
2022-12-22T21:45:31.727Z,26.53
2022-12-22T21:48:00.064Z,26.54
2022-12-22T21:50:34.130Z,26.49
2022-12-22T21:53:02.378Z,26.36
2022-12-22T21:55:31.570Z,26.37
2022-12-22T21:58:01.054Z,26.37
2022-12-22T22:00:30.429Z,26.38
2022-12-22T22:03:00.729Z,26.30
2022-12-22T22:05:35.736Z,26.21
2022-12-22T22:08:07.026Z,26.22
2022-12-22T22:10:40.434Z,26.18
2022-12-22T22:13:11.753Z,26.15
2022-12-22T22:15:40.105Z,26.10
2022-12-22T22:18:15.296Z,26.08
2022-12-22T22:20:44.144Z,26.11
2022-12-22T22:23:14.298Z,26.05
2022-12-22T22:25:42.424Z,26.06
2022-12-22T22:28:12.000Z,26.10
2022-12-22T22:30:41.263Z,26.07
2022-12-22T22:33:10.655Z,26.00
2022-12-22T22:35:41.123Z,26.06
2022-12-22T22:38:17.761Z,26.16
2022-12-22T22:40:48.674Z,26.07
2022-12-22T22:43:16.892Z,26.13
2022-12-22T22:45:46.601Z,26.14
2022-12-22T22:48:21.323Z,26.11
2022-12-22T22:50:49.991Z,26.16
2022-12-22T22:53:18.315Z,26.12
2022-12-22T22:55:46.598Z,26.07
2022-12-22T22:58:15.581Z,26.08
2022-12-22T23:00:43.822Z,26.01
2022-12-22T23:03:12.176Z,25.99
2022-12-22T23:05:40.388Z,25.99
2022-12-22T23:08:08.837Z,26.01
2022-12-22T23:10:41.543Z,26.03
2022-12-22T23:13:10.316Z,26.03
2022-12-22T23:15:38.647Z,26.00
2022-12-22T23:18:07.112Z,25.88
2022-12-22T23:20:35.462Z,25.87
2022-12-22T23:23:03.645Z,25.85
2022-12-22T23:25:31.793Z,25.86
2022-12-22T23:27:59.933Z,25.80
2022-12-22T23:30:28.134Z,25.69
2022-12-22T23:32:56.177Z,25.70
2022-12-22T23:35:24.358Z,25.64
2022-12-22T23:37:52.633Z,25.55
2022-12-22T23:43:11.213Z,25.63
2022-12-22T23:45:40.804Z,25.64
2022-12-22T23:48:09.655Z,25.62
2022-12-22T23:50:37.857Z,25.66
2022-12-22T23:53:06.075Z,25.70
2022-12-22T23:55:34.404Z,25.67
2022-12-22T23:58:03.178Z,25.56
